createdAt,value
2022-08-19T00:01:44.131Z,82.77
2022-08-19T00:04:16.249Z,76.20
2022-08-19T00:06:45.735Z,77.47
2022-08-19T00:09:16.080Z,77.80
2022-08-19T00:11:45.932Z,80.47
2022-08-19T00:14:17.118Z,79.87
2022-08-19T00:16:46.440Z,77.07
2022-08-19T00:19:15.349Z,77.20
2022-08-19T00:21:44.324Z,77.00
2022-08-19T00:24:14.305Z,75.97
2022-08-19T00:26:43.289Z,77.03
2022-08-19T00:29:15.626Z,77.47
2022-08-19T00:31:44.728Z,74.07
2022-08-19T00:34:13.225Z,75.70
2022-08-19T00:36:41.812Z,73.90
2022-08-19T00:39:10.436Z,74.63
2022-08-19T00:41:38.724Z,73.03
2022-08-19T00:44:09.161Z,72.40
2022-08-19T00:46:40.737Z,71.47
2022-08-19T00:49:12.419Z,72.23
2022-08-19T00:51:41.202Z,71.57
2022-08-19T00:54:10.125Z,72.37
2022-08-19T00:56:38.523Z,72.57
2022-08-19T00:59:10.109Z,72.40
2022-08-19T01:01:40.232Z,75.20
2022-08-19T01:04:08.835Z,72.57
2022-08-19T01:06:38.070Z,71.87
2022-08-19T01:09:06.958Z,71.37
2022-08-19T01:11:38.105Z,72.17
2022-08-19T01:14:06.382Z,72.60
2022-08-19T01:16:34.939Z,70.77
2022-08-19T01:19:04.691Z,72.17
2022-08-19T01:21:36.680Z,71.80
2022-08-19T01:24:06.560Z,71.97
2022-08-19T01:26:42.070Z,72.57
2022-08-19T01:29:10.418Z,73.43
2022-08-19T01:31:40.290Z,73.77
2022-08-19T01:34:09.126Z,72.87
2022-08-19T01:36:39.194Z,74.00
2022-08-19T01:39:13.137Z,72.13
2022-08-19T01:41:41.594Z,73.07
2022-08-19T01:44:17.327Z,73.23
2022-08-19T01:46:48.199Z,72.27
2022-08-19T01:49:16.950Z,72.70
2022-08-19T01:51:44.938Z,77.20
2022-08-19T01:54:26.977Z,70.60
2022-08-19T01:57:01.610Z,70.50
2022-08-19T01:59:30.013Z,71.50
2022-08-19T02:01:58.415Z,73.00
2022-08-19T02:04:27.587Z,73.30
2022-08-19T02:06:55.714Z,72.50
2022-08-19T02:09:25.117Z,71.17
2022-08-19T02:11:53.280Z,70.87
2022-08-19T02:14:21.339Z,72.40
2022-08-19T02:16:49.354Z,71.87
2022-08-19T02:19:17.408Z,72.33
2022-08-19T02:21:45.520Z,72.00
2022-08-19T02:24:13.860Z,71.07
2022-08-19T02:26:43.553Z,71.70
2022-08-19T02:29:11.870Z,73.17
2022-08-19T02:31:39.889Z,74.10
2022-08-19T02:34:07.858Z,72.50
2022-08-19T02:36:35.909Z,70.63
2022-08-19T02:39:03.149Z,71.20
2022-08-19T02:41:33.610Z,70.90
2022-08-19T02:44:22.958Z,72.43
2022-08-19T02:46:53.204Z,70.77
2022-08-19T02:49:21.681Z,70.57
2022-08-19T02:51:49.665Z,70.57
2022-08-19T02:54:18.259Z,69.50
2022-08-19T02:56:47.356Z,70.87
2022-08-19T02:59:16.739Z,72.33
2022-08-19T03:01:44.852Z,71.57
2022-08-19T03:04:16.613Z,71.70
2022-08-19T03:06:47.547Z,71.90
2022-08-19T03:09:16.678Z,71.80
2022-08-19T03:11:44.752Z,70.07
2022-08-19T03:14:13.812Z,69.50
2022-08-19T03:16:47.087Z,69.80
2022-08-19T03:19:16.303Z,70.87
2022-08-19T03:21:45.899Z,70.13
2022-08-19T03:24:15.551Z,70.60
2022-08-19T03:26:45.423Z,70.40
2022-08-19T03:29:13.586Z,69.80
2022-08-19T03:31:52.704Z,70.30
2022-08-19T03:34:24.076Z,71.27
2022-08-19T03:36:52.048Z,70.37
2022-08-19T03:39:20.052Z,71.70
2022-08-19T03:41:49.992Z,69.87
2022-08-19T03:44:38.624Z,69.83
2022-08-19T03:47:08.545Z,70.00
2022-08-19T03:49:37.575Z,70.27
2022-08-19T03:52:08.545Z,70.40
2022-08-19T03:54:37.282Z,70.40
2022-08-19T03:57:05.798Z,69.87
2022-08-19T03:59:35.465Z,71.17
2022-08-19T04:02:09.973Z,70.77
2022-08-19T04:04:40.876Z,69.33
2022-08-19T04:07:10.399Z,69.87
2022-08-19T04:09:39.008Z,70.37
2022-08-19T04:12:07.934Z,69.80
2022-08-19T04:14:36.827Z,70.37
2022-08-19T04:17:06.427Z,70.87
2022-08-19T04:19:35.290Z,70.37
2022-08-19T04:22:05.494Z,69.37
2022-08-19T04:24:33.740Z,70.27
2022-08-19T04:27:02.999Z,69.40
2022-08-19T04:29:31.643Z,69.47
2022-08-19T04:32:00.406Z,69.20
2022-08-19T04:35:01.161Z,69.47
2022-08-19T04:37:35.106Z,71.27
2022-08-19T04:40:24.554Z,69.50
2022-08-19T04:42:52.725Z,69.80
2022-08-19T04:45:23.114Z,69.90
2022-08-19T04:47:57.856Z,69.57
2022-08-19T04:50:26.740Z,67.77
2022-08-19T04:52:56.497Z,69.90
2022-08-19T04:55:26.406Z,68.67
2022-08-19T04:57:54.493Z,69.10
2022-08-19T05:00:22.539Z,69.67
2022-08-19T05:02:50.543Z,68.60
2022-08-19T05:05:19.298Z,68.40
2022-08-19T05:07:47.342Z,68.67
2022-08-19T05:10:16.680Z,72.27
2022-08-19T05:12:44.708Z,69.33
2022-08-19T05:15:13.020Z,69.30
2022-08-19T05:18:02.187Z,70.27
2022-08-19T05:20:47.965Z,71.00
2022-08-19T05:23:21.863Z,70.40
2022-08-19T05:25:52.602Z,69.67
2022-08-19T05:28:21.061Z,68.97
2022-08-19T05:30:49.135Z,70.50
2022-08-19T05:33:17.148Z,70.40
2022-08-19T05:35:45.403Z,69.80
2022-08-19T05:38:13.669Z,73.17
2022-08-19T05:40:42.540Z,70.67
2022-08-19T05:43:11.876Z,70.10
2022-08-19T05:45:41.366Z,68.97
2022-08-19T05:48:12.022Z,69.97
2022-08-19T05:50:40.971Z,69.97
2022-08-19T05:53:09.764Z,70.30
2022-08-19T05:55:39.197Z,69.77
2022-08-19T05:58:08.470Z,69.10
2022-08-19T06:00:38.573Z,68.97
2022-08-19T06:03:12.724Z,69.77
2022-08-19T06:05:51.378Z,69.77
2022-08-19T06:08:33.955Z,72.07
2022-08-19T06:11:18.784Z,71.30
2022-08-19T06:13:48.559Z,70.30
2022-08-19T06:16:21.833Z,72.30
2022-08-19T06:18:52.544Z,71.27
2022-08-19T06:21:21.221Z,71.50
2022-08-19T06:23:49.554Z,71.37
2022-08-19T06:26:18.285Z,71.87
2022-08-19T06:28:47.368Z,70.40
2022-08-19T06:31:17.514Z,72.83
2022-08-19T06:33:46.949Z,72.90
2022-08-19T06:36:20.036Z,71.50
2022-08-19T06:38:48.071Z,72.20
2022-08-19T06:41:16.099Z,72.80
2022-08-19T06:43:44.832Z,72.50
2022-08-19T06:46:15.524Z,72.93
2022-08-19T06:48:45.861Z,73.10
2022-08-19T06:51:16.672Z,73.77
2022-08-19T06:53:47.960Z,72.40
2022-08-19T06:56:18.188Z,73.07
2022-08-19T06:58:46.588Z,73.67
2022-08-19T07:01:14.922Z,72.80
2022-08-19T07:03:42.992Z,74.60
2022-08-19T07:06:32.665Z,80.13
2022-08-19T07:09:05.098Z,75.57
2022-08-19T07:11:34.546Z,72.83
2022-08-19T07:14:02.722Z,76.27
2022-08-19T07:16:31.390Z,74.30
2022-08-19T07:19:00.381Z,75.90
2022-08-19T07:21:42.562Z,75.37
2022-08-19T07:24:11.014Z,77.07
2022-08-19T07:26:42.203Z,74.90
2022-08-19T07:29:10.760Z,75.83
2022-08-19T07:31:39.377Z,76.00
2022-08-19T07:34:12.500Z,78.00
2022-08-19T07:36:43.474Z,75.97
2022-08-19T07:39:14.997Z,75.67
2022-08-19T07:41:43.268Z,76.47
2022-08-19T07:44:13.423Z,77.50
2022-08-19T07:46:46.488Z,76.40
2022-08-19T07:49:20.143Z,77.80
2022-08-19T07:51:51.779Z,78.70
2022-08-19T07:54:20.936Z,76.60
2022-08-19T07:56:49.020Z,78.47
2022-08-19T07:59:21.469Z,77.50
2022-08-19T08:01:51.101Z,78.53
2022-08-19T08:04:37.341Z,78.67
2022-08-19T08:07:25.140Z,76.07
2022-08-19T08:10:03.328Z,79.20
2022-08-19T08:12:35.520Z,82.70
2022-08-19T08:15:12.485Z,78.37
2022-08-19T08:17:49.651Z,78.77
2022-08-19T08:20:20.757Z,79.00
2022-08-19T08:23:08.009Z,77.77
2022-08-19T08:25:37.382Z,83.50
2022-08-19T08:28:06.386Z,78.93
2022-08-19T08:30:36.824Z,78.43
2022-08-19T08:33:06.199Z,76.90
2022-08-19T08:35:34.569Z,86.95
2022-08-19T08:38:05.324Z,80.00
2022-08-19T08:40:40.581Z,79.50
2022-08-19T08:43:11.647Z,78.83
2022-08-19T08:45:45.869Z,79.80
2022-08-19T08:48:25.482Z,81.47
2022-08-19T08:50:57.062Z,79.43
2022-08-19T08:53:31.192Z,79.57
2022-08-19T08:56:01.416Z,80.20
2022-08-19T08:58:44.267Z,78.40
2022-08-19T09:01:13.332Z,78.60
2022-08-19T09:03:44.078Z,78.90
2022-08-19T09:06:17.021Z,80.33
2022-08-19T09:08:56.649Z,81.83
2022-08-19T09:11:42.610Z,81.10
2022-08-19T09:14:47.269Z,86.00
2022-08-19T09:17:11.471Z,78.00
2022-08-19T09:19:51.850Z,81.10
2022-08-19T09:22:25.751Z,80.17
2022-08-19T09:24:56.764Z,76.57
2022-08-19T09:27:35.424Z,81.07
2022-08-19T09:30:14.842Z,78.50
2022-08-19T09:32:44.341Z,80.83
2022-08-19T09:35:13.871Z,81.90
2022-08-19T09:37:42.150Z,80.40
2022-08-19T09:40:14.261Z,83.07
2022-08-19T09:42:49.649Z,82.17
2022-08-19T09:45:19.262Z,79.13
2022-08-19T09:47:47.808Z,80.90
2022-08-19T09:50:16.807Z,80.03
2022-08-19T09:52:55.284Z,81.40
2022-08-19T09:55:34.313Z,79.70
2022-08-19T09:58:39.212Z,79.40
2022-08-19T10:02:38.699Z,80.53
2022-08-19T10:05:30.486Z,81.33
2022-08-19T10:08:02.002Z,81.17
2022-08-19T11:07:36.598Z,79.93
2022-08-19T11:14:55.519Z,78.60
2022-08-19T11:17:24.514Z,80.40
2022-08-19T11:19:52.633Z,75.83
2022-08-19T11:22:20.957Z,76.13
2022-08-19T11:24:48.949Z,75.70
2022-08-19T11:27:17.969Z,81.03
2022-08-19T11:29:45.958Z,78.37
2022-08-19T11:32:16.550Z,75.30
2022-08-19T11:34:44.520Z,74.80
2022-08-19T11:37:12.677Z,76.27
2022-08-19T11:39:42.660Z,76.63
2022-08-19T11:42:24.645Z,76.03
2022-08-19T11:44:54.904Z,75.50
2022-08-19T11:47:24.396Z,75.97
2022-08-19T11:49:52.715Z,78.70
2022-08-19T11:52:20.777Z,77.17
2022-08-19T11:54:48.761Z,77.50
2022-08-19T11:57:18.037Z,78.90
2022-08-19T11:59:50.849Z,81.70
2022-08-19T12:02:20.044Z,78.37
2022-08-19T12:04:49.461Z,79.40
2022-08-19T12:07:17.717Z,76.77
2022-08-19T12:09:45.926Z,75.80
2022-08-19T12:12:17.045Z,75.37
2022-08-19T12:14:47.505Z,77.27
2022-08-19T12:17:15.607Z,75.27
2022-08-19T12:19:43.702Z,72.60
2022-08-19T12:22:13.436Z,72.90
2022-08-19T12:24:41.542Z,76.50
2022-08-19T12:27:12.971Z,74.50
2022-08-19T12:29:41.942Z,76.10
2022-08-19T12:32:10.438Z,73.10
2022-08-19T12:34:40.766Z,74.13
2022-08-19T12:37:09.443Z,77.63
2022-08-19T12:39:42.467Z,73.30
2022-08-19T12:42:11.439Z,71.73
2022-08-19T12:44:41.725Z,73.23
2022-08-19T12:47:12.478Z,73.50
2022-08-19T12:49:53.573Z,73.30
2022-08-19T12:52:25.376Z,71.77
2022-08-19T12:54:56.899Z,72.20
2022-08-19T12:57:31.917Z,73.10
2022-08-19T13:00:05.449Z,74.07
2022-08-19T13:02:38.804Z,72.40
2022-08-19T13:05:10.268Z,72.70
2022-08-19T13:07:39.524Z,73.67
2022-08-19T13:10:12.077Z,72.40
2022-08-19T13:12:41.969Z,71.73
2022-08-19T13:15:11.485Z,72.80
2022-08-19T13:17:41.500Z,71.67
2022-08-19T13:20:11.572Z,73.00
2022-08-19T13:22:39.680Z,71.87
2022-08-19T13:25:10.445Z,71.97
2022-08-19T13:27:39.032Z,73.07
2022-08-19T13:30:26.765Z,73.00
2022-08-19T13:33:17.627Z,72.50
2022-08-19T13:35:48.815Z,72.80
2022-08-19T13:38:19.036Z,71.00
2022-08-19T13:40:51.280Z,78.70
2022-08-19T13:43:23.290Z,72.27
2022-08-19T13:45:53.633Z,72.90
2022-08-19T13:48:21.929Z,72.60
2022-08-19T13:50:50.483Z,70.53
2022-08-19T13:53:19.433Z,71.10
2022-08-19T13:55:49.656Z,71.30
2022-08-19T13:58:17.762Z,71.30
2022-08-19T14:00:48.597Z,71.07
2022-08-19T14:03:17.126Z,71.97
2022-08-19T14:05:45.171Z,71.50
2022-08-19T14:08:13.312Z,71.60
2022-08-19T14:10:41.849Z,72.67
2022-08-19T14:13:11.235Z,72.30
2022-08-19T14:15:39.887Z,71.80
2022-08-19T14:18:08.096Z,71.27
2022-08-19T14:20:36.251Z,71.80
2022-08-19T14:23:06.131Z,72.03
2022-08-19T14:25:35.194Z,70.90
2022-08-19T14:28:04.093Z,73.37
2022-08-19T14:30:35.557Z,72.00
2022-08-19T14:33:04.038Z,70.37
2022-08-19T14:35:35.685Z,77.47
2022-08-19T14:38:05.805Z,71.70
2022-08-19T14:40:34.259Z,71.67
2022-08-19T14:43:05.448Z,71.40
2022-08-19T14:45:37.484Z,70.70
2022-08-19T14:48:05.748Z,70.10
2022-08-19T14:50:34.298Z,70.73
2022-08-19T14:53:11.954Z,69.80
2022-08-19T14:55:44.275Z,69.47
2022-08-19T14:58:28.805Z,69.17
2022-08-19T15:01:01.081Z,69.77
2022-08-19T15:03:29.619Z,69.47
2022-08-19T15:05:58.677Z,69.20
2022-08-19T15:08:27.677Z,69.37
2022-08-19T15:10:57.112Z,69.80
2022-08-19T15:13:26.119Z,70.53
2022-08-19T15:15:54.785Z,69.37
2022-08-19T15:18:24.118Z,69.70
2022-08-19T15:20:52.381Z,70.37
2022-08-19T15:23:21.245Z,68.73
2022-08-19T15:25:52.960Z,69.67
2022-08-19T15:28:21.217Z,70.63
2022-08-19T15:30:50.981Z,69.53
2022-08-19T15:33:21.003Z,69.00
2022-08-19T15:35:51.943Z,68.40
2022-08-19T15:38:22.355Z,68.60
2022-08-19T15:40:51.231Z,68.80
2022-08-19T15:43:21.759Z,69.33
2022-08-19T15:45:49.870Z,68.87
2022-08-19T15:48:17.844Z,68.37
2022-08-19T15:50:45.849Z,70.50
2022-08-19T15:53:15.310Z,68.27
2022-08-19T15:55:45.620Z,68.60
2022-08-19T15:58:33.183Z,68.43
2022-08-19T16:01:21.315Z,67.30
2022-08-19T16:04:14.053Z,70.60
2022-08-19T16:06:45.381Z,73.60
2022-08-19T16:09:15.772Z,68.60
2022-08-19T16:11:45.824Z,69.27
2022-08-19T16:14:15.542Z,70.40
2022-08-19T16:16:47.054Z,69.20
2022-08-19T16:19:17.031Z,73.00
2022-08-19T16:21:46.191Z,70.80
2022-08-19T16:24:18.067Z,71.70
2022-08-19T16:26:46.586Z,72.10
2022-08-19T16:29:15.641Z,71.40
2022-08-19T16:32:02.866Z,73.97
2022-08-19T16:34:31.769Z,73.57
2022-08-19T16:37:01.725Z,74.07
2022-08-19T16:39:31.183Z,81.83
2022-08-19T16:41:59.653Z,76.40
2022-08-19T16:44:29.921Z,78.97
2022-08-19T16:46:59.556Z,79.53
2022-08-19T16:49:54.227Z,80.20
2022-08-19T16:52:16.324Z,77.70
2022-08-19T16:54:45.794Z,78.67
2022-08-19T16:57:14.089Z,80.63
2022-08-19T16:59:43.774Z,80.00
2022-08-19T17:02:17.779Z,80.17
2022-08-19T17:04:55.680Z,80.10
2022-08-19T17:07:27.579Z,80.67
2022-08-19T17:09:57.710Z,82.50
2022-08-19T17:12:30.385Z,80.93
2022-08-19T17:15:00.727Z,77.93
2022-08-19T17:17:29.543Z,78.10
2022-08-19T17:19:57.781Z,81.83
2022-08-19T17:22:25.892Z,78.17
2022-08-19T17:24:54.056Z,78.10
2022-08-19T17:27:26.439Z,77.47
2022-08-19T17:29:54.580Z,79.60
2022-08-19T17:32:25.028Z,80.00
2022-08-19T17:34:54.199Z,76.87
2022-08-19T17:37:22.375Z,79.07
2022-08-19T17:39:50.494Z,77.37
2022-08-19T17:42:18.542Z,77.40
2022-08-19T17:44:50.572Z,75.97
2022-08-19T17:47:19.450Z,78.27
2022-08-19T17:49:48.364Z,77.10
2022-08-19T17:52:16.639Z,76.60
2022-08-19T17:54:44.623Z,75.40
2022-08-19T17:57:14.088Z,75.90
2022-08-19T17:59:42.141Z,74.77
2022-08-19T18:02:12.368Z,73.50
2022-08-19T18:04:40.520Z,73.07
2022-08-19T18:07:08.553Z,73.80
2022-08-19T18:09:41.559Z,73.97
2022-08-19T18:12:12.018Z,71.80
2022-08-19T18:14:40.793Z,70.37
2022-08-19T18:17:12.470Z,70.23
2022-08-19T18:19:43.275Z,71.60
2022-08-19T18:22:13.628Z,69.70
2022-08-19T18:24:46.058Z,70.80
2022-08-19T18:27:14.467Z,70.50
2022-08-19T18:29:43.341Z,76.00
2022-08-19T18:32:13.730Z,71.07
2022-08-19T18:34:42.802Z,71.17
2022-08-19T18:37:11.018Z,70.97
2022-08-19T18:39:56.148Z,72.03
2022-08-19T18:42:42.130Z,70.17
2022-08-19T18:45:28.325Z,71.97
2022-08-19T18:48:26.759Z,71.30
2022-08-19T18:50:57.692Z,72.10
2022-08-19T18:53:26.212Z,73.50
2022-08-19T18:55:55.277Z,72.67
2022-08-19T18:58:26.349Z,72.57
2022-08-19T19:00:57.365Z,72.57
2022-08-19T19:03:27.723Z,72.90
2022-08-19T19:05:55.946Z,73.63
2022-08-19T19:08:27.165Z,72.30
2022-08-19T19:10:57.050Z,74.77
2022-08-19T19:13:25.067Z,71.57
2022-08-19T19:15:54.453Z,72.90
2022-08-19T19:18:22.472Z,72.80
2022-08-19T19:20:51.890Z,74.37
2022-08-19T19:23:20.631Z,73.77
2022-08-19T19:25:51.131Z,73.27
2022-08-19T19:28:25.685Z,71.77
2022-08-19T19:30:54.457Z,73.07
2022-08-19T19:33:22.559Z,72.97
2022-08-19T19:35:51.865Z,73.70
2022-08-19T19:38:19.901Z,76.10
2022-08-19T19:40:47.911Z,72.87
2022-08-19T19:43:18.392Z,72.50
2022-08-19T19:45:47.538Z,73.00
2022-08-19T19:48:16.343Z,73.20
2022-08-19T19:50:45.687Z,72.40
2022-08-19T19:53:15.682Z,73.67
2022-08-19T19:55:43.873Z,73.60
2022-08-19T19:58:11.960Z,75.93
2022-08-19T20:00:40.122Z,73.50
2022-08-19T20:03:08.153Z,74.87
2022-08-19T20:05:36.247Z,74.97
2022-08-19T20:08:22.035Z,74.67
2022-08-19T20:10:51.384Z,74.40
2022-08-19T20:13:19.485Z,76.70
2022-08-19T20:15:47.521Z,74.93
2022-08-19T20:18:15.639Z,75.50
2022-08-19T20:20:45.010Z,73.57
2022-08-19T20:23:13.395Z,75.77
2022-08-19T20:25:42.059Z,74.00
2022-08-19T20:28:12.454Z,74.60
2022-08-19T20:30:43.769Z,72.77
2022-08-19T20:33:14.807Z,76.03
2022-08-19T20:35:44.093Z,74.40
2022-08-19T20:38:12.198Z,74.70
2022-08-19T20:40:41.192Z,74.00
2022-08-19T20:43:12.356Z,73.67
2022-08-19T20:45:40.771Z,75.27
2022-08-19T20:48:10.592Z,74.27
2022-08-19T20:50:38.709Z,74.17
2022-08-19T20:53:14.103Z,75.43
2022-08-19T20:55:44.349Z,75.40
2022-08-19T20:58:14.646Z,74.37
2022-08-19T21:00:45.581Z,73.47
2022-08-19T21:03:14.463Z,73.20
2022-08-19T21:05:42.486Z,73.80
2022-08-19T21:08:10.974Z,73.50
2022-08-19T21:10:42.282Z,73.87
2022-08-19T21:13:10.573Z,75.90
2022-08-19T21:15:43.127Z,74.00
2022-08-19T21:18:12.269Z,74.07
2022-08-19T21:20:41.263Z,74.20
2022-08-19T21:23:11.903Z,74.23
2022-08-19T21:25:40.894Z,73.40
2022-08-19T21:28:11.718Z,75.00
2022-08-19T21:30:46.154Z,73.70
2022-08-19T21:33:14.210Z,71.97
2022-08-19T21:35:42.495Z,72.70
2022-08-19T21:38:10.470Z,72.37
2022-08-19T21:40:38.540Z,71.80
2022-08-19T21:43:06.729Z,74.80
2022-08-19T21:45:34.846Z,74.27
2022-08-19T21:48:04.824Z,73.00
2022-08-19T21:50:33.487Z,76.67
2022-08-19T21:53:02.116Z,72.63
2022-08-19T21:55:30.358Z,73.47
2022-08-19T21:58:00.229Z,73.97
2022-08-19T22:00:30.365Z,75.57
2022-08-19T22:03:01.313Z,74.67
2022-08-19T22:05:31.364Z,74.37
2022-08-19T22:08:00.562Z,79.00
2022-08-19T22:10:32.140Z,74.00
2022-08-19T22:13:00.587Z,73.70
2022-08-19T22:15:29.180Z,74.93
2022-08-19T22:17:58.418Z,78.47
2022-08-19T22:20:28.705Z,76.60
2022-08-19T22:23:00.276Z,74.57
2022-08-19T22:25:31.892Z,76.57
2022-08-19T22:28:01.568Z,78.30
2022-08-19T22:30:33.303Z,75.20
2022-08-19T22:33:04.484Z,76.43
2022-08-19T22:35:37.561Z,76.33
2022-08-19T22:38:08.102Z,74.33
2022-08-19T22:40:39.608Z,75.30
2022-08-19T22:43:10.115Z,74.67
2022-08-19T22:45:38.138Z,74.50
2022-08-19T22:48:07.843Z,74.77
2022-08-19T22:50:36.212Z,75.40
2022-08-19T22:53:04.528Z,74.37
2022-08-19T22:55:35.215Z,74.07
2022-08-19T22:58:03.248Z,75.67
2022-08-19T23:00:31.963Z,75.93
2022-08-19T23:03:01.597Z,73.90
2022-08-19T23:05:30.416Z,74.10
2022-08-19T23:07:59.490Z,73.87
2022-08-19T23:10:28.977Z,73.67
2022-08-19T23:12:59.742Z,73.97
2022-08-19T23:15:29.842Z,77.47
2022-08-19T23:18:01.400Z,74.33
2022-08-19T23:20:32.942Z,74.00
2022-08-19T23:23:02.772Z,75.47
2022-08-19T23:25:32.711Z,76.27
2022-08-19T23:28:19.952Z,74.17
2022-08-19T23:30:49.644Z,76.20
2022-08-19T23:33:21.660Z,76.40
2022-08-19T23:35:51.772Z,76.43
2022-08-19T23:38:22.719Z,75.87
2022-08-19T23:40:51.542Z,79.00
2022-08-19T23:43:25.017Z,76.87
2022-08-19T23:45:57.474Z,74.57
2022-08-19T23:48:26.077Z,74.37
2022-08-19T23:50:57.510Z,76.33
2022-08-19T23:53:25.685Z,76.53
2022-08-19T23:55:54.168Z,79.07
2022-08-19T23:58:23.805Z,75.97
